Time;durP1;ratioP1;P1;durP2;ratioP2;P2;SDS_P1;SDS_P2;PMS_P1;PMS_P2;Temp;Humidity;BMP_temperature;BMP_pressure;BME280_temperature;BME280_humidity;BME280_pressure;Samples;Min_cycle;Max_cycle;Signal;HPM_P1;HPM_P2
2021/05/11 02:48:37;;;;;;;11.80;11.18;;;;;;;;;;4993332;23;92069;-83
2021/05/11 02:51:03;;;;;;;13.30;12.57;;;12.40;99.90;;;;;;4983954;28;91335;-84
2021/05/11 02:53:29;;;;;;;14.27;13.52;;;12.40;99.90;;;;;;4975023;28;92102;-87
2021/05/11 02:55:55;;;;;;;15.23;14.52;;;12.20;99.90;;;;;;4969231;28;92050;-85
2021/05/11 02:58:22;;;;;;;13.40;12.80;;;12.00;99.90;;;;;;4981172;28;91927;-84
2021/05/11 03:00:48;;;;;;;14.43;13.80;;;12.20;99.90;;;;;;4981327;28;91701;-85
2021/05/11 03:03:14;;;;;;;16.05;15.35;;;;;;;;;;4976314;28;90957;-87
2021/05/11 03:05:40;;;;;;;24.15;23.02;;;12.50;99.90;;;;;;4970086;28;92133;-88
2021/05/11 03:08:06;;;;;;;29.23;28.02;;;;;;;;;;4967667;28;92102;-86
2021/05/11 03:10:31;;;;;;;24.00;22.83;;;12.30;99.90;;;;;;4968540;28;93004;-86
2021/05/11 03:12:57;;;;;;;24.35;23.33;;;12.60;99.90;;;;;;4950306;28;92083;-85
2021/05/11 03:15:23;;;;;;;12.05;11.55;;;;;;;;;;4967391;28;92774;-85
2021/05/11 03:17:49;;;;;;;15.05;14.45;;;12.80;99.90;;;;;;4967134;28;92466;-87
2021/05/11 03:20:15;;;;;;;15.07;14.48;;;13.00;99.90;;;;;;4967177;28;92008;-88
2021/05/11 03:22:41;;;;;;;16.67;15.90;;;13.20;99.90;;;;;;4967109;28;91634;-87
2021/05/11 03:25:08;;;;;;;14.40;13.68;;;13.40;99.90;;;;;;4966888;28;92760;-85
2021/05/11 03:27:34;;;;;;;16.58;15.77;;;12.90;99.90;;;;;;4967584;28;92002;-85
2021/05/11 03:30:00;;;;;;;14.93;14.30;;;;;;;;;;4966978;28;91766;-88
2021/05/11 03:32:39;;;;;;;22.05;21.05;;;13.10;99.90;;;;;;4966036;28;92599;-84
2021/05/11 03:35:05;;;;;;;15.27;14.57;;;;;;;;;;4965847;28;94384;-84
2021/05/11 03:37:31;;;;;;;15.57;14.88;;;13.50;99.90;;;;;;4966287;28;94325;-85
2021/05/11 03:39:57;;;;;;;15.18;14.52;;;12.80;99.90;;;;;;4966163;28;91787;-84
2021/05/11 03:42:30;;;;;;;15.05;14.35;;;13.50;99.90;;;;;;4965683;28;91815;-86
2021/05/11 03:44:59;;;;;;;17.67;16.77;;;13.20;99.90;;;;;;4964406;28;92128;-84
2021/05/11 03:47:27;;;;;;;17.92;17.13;;;13.30;99.90;;;;;;4962649;28;92069;-87
2021/05/11 03:49:53;;;;;;;19.85;18.95;;;13.20;99.90;;;;;;4965017;28;91793;-82
2021/05/11 03:52:18;;;;;;;16.17;15.48;;;13.40;99.90;;;;;;4966718;28;91381;-86
2021/05/11 03:54:44;;;;;;;17.65;16.85;;;;;;;;;;4964457;28;91902;-86
2021/05/11 03:57:12;;;;;;;15.63;14.90;;;13.10;99.90;;;;;;4957780;28;92195;-84
2021/05/11 03:59:38;;;;;;;14.43;13.82;;;13.10;99.90;;;;;;4962582;28;93095;-84
2021/05/11 04:02:05;;;;;;;17.10;16.30;;;13.20;99.90;;;;;;4940984;28;91823;-89
2021/05/11 04:04:31;;;;;;;13.23;12.63;;;13.00;99.90;;;;;;4960533;28;92718;-84
2021/05/11 04:06:57;;;;;;;12.98;12.38;;;13.20;99.90;;;;;;4946388;28;94843;-85
2021/05/11 04:09:34;;;;;;;12.45;11.85;;;13.80;99.90;;;;;;4964523;28;92129;-84
2021/05/11 04:17:09;;;;;;;10.95;10.45;;;13.90;99.90;;;;;;4964206;28;91210;-83
2021/05/11 04:19:35;;;;;;;10.27;9.68;;;13.50;99.90;;;;;;4963694;28;91722;-83
2021/05/11 04:22:01;;;;;;;11.48;10.77;;;;;;;;;;4948334;28;92139;-83
2021/05/11 04:24:28;;;;;;;10.93;10.43;;;14.10;99.90;;;;;;4962135;28;93088;-82
2021/05/11 04:26:55;;;;;;;10.25;9.65;;;13.60;99.90;;;;;;4962425;28;94532;-83
2021/05/11 04:29:28;;;;;;;11.25;10.65;;;13.80;99.90;;;;;;4969004;28;91824;-85
2021/05/11 04:31:54;;;;;;;10.50;9.90;;;13.50;99.90;;;;;;4964364;28;92111;-86
2021/05/11 04:34:20;;;;;;;11.00;10.45;;;;;;;;;;4964330;28;93045;-84
2021/05/11 04:36:45;;;;;;;12.30;11.55;;;13.80;99.90;;;;;;4963656;28;92044;-84
2021/05/11 04:39:27;;;;;;;11.68;11.07;;;13.90;99.90;;;;;;4956374;28;91942;-84
2021/05/11 04:41:52;;;;;;;11.85;11.25;;;13.90;99.90;;;;;;4960505;28;91219;-86
2021/05/11 04:44:20;;;;;;;12.18;11.57;;;;;;;;;;4962285;28;93332;-84
2021/05/11 04:46:56;;;;;;;12.73;12.13;;;13.80;99.90;;;;;;4962705;28;92035;-84
2021/05/11 04:49:23;;;;;;;12.93;12.15;;;14.40;99.90;;;;;;4963044;28;93268;-83
2021/05/11 04:51:49;;;;;;;12.30;11.60;;;13.60;99.90;;;;;;4964652;28;92051;-84
2021/05/11 04:54:17;;;;;;;14.65;13.65;;;13.70;99.90;;;;;;4962614;28;92572;-86
2021/05/11 04:56:45;;;;;;;14.75;13.80;;;13.50;99.90;;;;;;4953130;28;91961;-86
2021/05/11 04:59:13;;;;;;;15.45;14.45;;;14.20;99.90;;;;;;4957179;28;92683;-84
2021/05/11 05:01:43;;;;;;;14.32;13.38;;;13.90;99.90;;;;;;4958971;28;91428;-89
2021/05/11 05:04:10;;;;;;;13.40;12.60;;;;;;;;;;4957611;28;92774;-85
2021/05/11 05:06:36;;;;;;;12.95;12.25;;;13.90;99.90;;;;;;4963844;28;92446;-85
2021/05/11 05:09:02;;;;;;;13.38;12.68;;;;;;;;;;4956848;28;92116;-85
2021/05/11 05:11:28;;;;;;;12.65;11.98;;;;;;;;;;4964298;28;91678;-85
2021/05/11 05:13:54;;;;;;;11.85;11.27;;;14.40;99.90;;;;;;4959581;28;94139;-85
2021/05/11 05:16:19;;;;;;;12.18;11.60;;;14.20;99.90;;;;;;4964584;28;93122;-85
2021/05/11 05:18:45;;;;;;;11.45;10.85;;;;;;;;;;4965448;28;91776;-85
2021/05/11 05:21:13;;;;;;;9.52;9.00;;;;;;;;;;4963345;28;92054;-87
2021/05/11 05:23:41;;;;;;;9.63;9.13;;;14.50;99.90;;;;;;4958450;28;92087;-87
2021/05/11 05:26:10;;;;;;;10.65;10.15;;;14.30;99.90;;;;;;4960890;28;91865;-86
2021/05/11 05:28:39;;;;;;;14.00;13.20;;;14.60;99.90;;;;;;4959882;28;91981;-85
2021/05/11 05:31:06;;;;;;;15.98;15.25;;;14.10;99.90;;;;;;4954242;28;91198;-84
2021/05/11 05:33:34;;;;;;;15.32;14.63;;;13.90;99.90;;;;;;4962209;28;92102;-87
2021/05/11 05:36:00;;;;;;;13.73;13.13;;;14.40;99.90;;;;;;4959896;28;91981;-86
2021/05/11 05:38:27;;;;;;;11.40;10.80;;;14.40;99.90;;;;;;4962683;28;93069;-85
2021/05/11 05:41:02;;;;;;;12.70;12.10;;;15.10;99.90;;;;;;4961769;28;91887;-85
2021/05/11 05:43:28;;;;;;;14.70;14.02;;;15.00;99.90;;;;;;4959654;28;92068;-84
2021/05/11 05:45:55;;;;;;;9.18;8.57;;;14.50;99.90;;;;;;4962464;28;92043;-84
2021/05/11 05:48:22;;;;;;;10.68;10.07;;;15.20;99.90;;;;;;4962119;28;92024;-85
2021/05/11 05:50:54;;;;;;;12.45;11.85;;;15.10;99.90;;;;;;4970717;28;92156;-86
2021/05/11 05:53:28;;;;;;;14.85;13.95;;;15.10;99.90;;;;;;4967276;28;92175;-86
2021/05/11 05:55:54;;;;;;;12.95;12.35;;;14.80;99.90;;;;;;4962739;28;92483;-85
2021/05/11 05:58:20;;;;;;;11.98;11.38;;;;;;;;;;4960618;28;92020;-83
2021/05/11 06:00:47;;;;;;;12.75;12.15;;;14.60;99.90;;;;;;4969263;28;92397;-83
2021/05/11 06:03:35;;;;;;;14.30;13.50;;;15.30;99.90;;;;;;4964351;28;93062;-84
2021/05/11 06:06:03;;;;;;;16.48;15.77;;;15.30;99.90;;;;;;4963348;28;93053;-85
2021/05/11 06:08:29;;;;;;;20.02;19.02;;;15.10;99.90;;;;;;4965825;28;91261;-85
2021/05/11 06:11:41;;;;;;;15.60;14.80;;;15.30;99.90;;;;;;4953416;28;92093;-86
2021/05/11 06:14:04;;;;;;;12.98;12.38;;;15.20;99.90;;;;;;4952658;28;92773;-85
2021/05/11 06:19:15;;;;;;;11.40;10.70;;;14.90;99.90;;;;;;4952771;28;92204;-83
2021/05/11 06:21:41;;;;;;;10.95;10.45;;;15.40;99.90;;;;;;4966625;28;91354;-84
2021/05/11 06:24:08;;;;;;;11.75;11.23;;;15.60;99.90;;;;;;4965365;28;92464;-85
2021/05/11 06:26:34;;;;;;;14.57;13.98;;;15.00;99.90;;;;;;4964491;28;91994;-84
2021/05/11 06:29:01;;;;;;;13.57;12.82;;;15.90;99.90;;;;;;4960284;28;92783;-85
2021/05/11 06:31:27;;;;;;;10.45;9.95;;;16.00;99.90;;;;;;4957560;28;92645;-84
2021/05/11 06:33:54;;;;;;;12.07;11.48;;;;;;;;;;4953600;28;93289;-84
2021/05/11 06:36:20;;;;;;;9.40;8.95;;;16.00;99.90;;;;;;4964695;28;93019;-85
2021/05/11 06:38:46;;;;;;;15.07;14.35;;;16.20;99.90;;;;;;4954488;28;91896;-85
2021/05/11 06:41:13;;;;;;;10.25;9.75;;;;;;;;;;4954136;28;91984;-85
2021/05/11 06:43:41;;;;;;;9.98;9.48;;;16.90;99.90;;;;;;4966561;28;93163;-85
2021/05/11 06:48:42;;;;;;;21.85;20.95;;;17.10;99.90;;;;;;4963305;28;91760;-84
2021/05/11 06:53:41;;;;;;;10.57;10.07;;;17.40;99.90;;;;;;4962019;28;94151;-86
2021/05/11 06:56:09;;;;;;;10.65;10.05;;;17.90;99.90;;;;;;4961340;28;93348;-85
2021/05/11 06:58:35;;;;;;;8.43;8.02;;;17.70;99.90;;;;;;4965159;28;91882;-83
2021/05/11 07:01:02;;;;;;;10.80;10.30;;;17.90;99.90;;;;;;4965534;28;91840;-84
2021/05/11 07:03:27;;;;;;;11.80;11.10;;;17.70;99.10;;;;;;4960748;28;91683;-87
2021/05/11 07:05:53;;;;;;;12.35;11.75;;;17.80;98.60;;;;;;4965318;28;92455;-84
2021/05/11 07:08:33;;;;;;;12.73;12.02;;;18.70;97.50;;;;;;4965321;28;92075;-86
2021/05/11 07:11:02;;;;;;;11.15;10.55;;;18.70;96.30;;;;;;4947460;28;91323;-87
2021/05/11 07:13:27;;;;;;;13.00;12.32;;;19.40;96.10;;;;;;4959627;28;97187;-85
2021/05/11 07:15:53;;;;;;;14.40;13.70;;;19.20;95.90;;;;;;4966530;28;92093;-84
2021/05/11 07:18:23;;;;;;;13.35;12.75;;;19.40;93.40;;;;;;4962164;28;92865;-84
2021/05/11 07:20:54;;;;;;;11.98;11.43;;;19.30;93.10;;;;;;4966224;28;92043;-85
2021/05/11 07:23:21;;;;;;;13.13;12.35;;;19.20;92.90;;;;;;4958570;28;91692;-86
2021/05/11 07:26:11;;;;;;;26.80;25.58;;;19.30;92.70;;;;;;4960457;28;92415;-85
2021/05/11 07:31:11;;;;;;;19.60;18.70;;;18.20;92.80;;;;;;4962243;28;91949;-86
2021/05/11 07:33:51;;;;;;;15.80;14.90;;;18.50;92.70;;;;;;4959474;28;92698;-85
2021/05/11 07:36:18;;;;;;;15.60;14.80;;;18.30;93.00;;;;;;4965492;28;92067;-85
2021/05/11 07:38:47;;;;;;;31.00;29.65;;;18.30;93.20;;;;;;4961162;28;91881;-84
2021/05/11 07:41:15;;;;;;;18.77;17.83;;;17.60;93.50;;;;;;4969360;28;92028;-84
2021/05/11 07:43:47;;;;;;;16.83;15.93;;;18.90;94.10;;;;;;4967261;28;94307;-87
2021/05/11 08:10:49;;;;;;;16.95;16.20;;;19.60;92.20;;;;;;4966189;28;92928;-87
2021/05/11 08:15:56;;;;;;;13.00;12.40;;;20.20;90.50;;;;;;4966442;28;91885;-87
2021/05/11 08:29:08;;;;;;;42.63;40.83;;;26.80;64.00;;;;;;4966603;28;91310;-88
2021/05/11 08:31:34;;;;;;;95.95;92.20;;;;;;;;;;4965697;28;91977;-89
2021/05/11 08:33:59;;;;;;;70.75;67.95;;;28.10;58.90;;;;;;4966034;28;92082;-87
2021/05/11 08:36:28;;;;;;;44.47;42.70;;;28.80;53.00;;;;;;4960234;28;93568;-87
2021/05/11 08:38:57;;;;;;;62.88;60.38;;;29.00;51.90;;;;;;4956110;28;93398;-88
2021/05/11 08:41:23;;;;;;;117.88;113.43;;;28.70;49.40;;;;;;4947875;28;92026;-88
2021/05/11 08:43:49;;;;;;;114.07;109.63;;;28.30;49.90;;;;;;4963713;28;91910;-88
2021/05/11 08:46:15;;;;;;;75.63;72.60;;;27.30;51.90;;;;;;4944500;28;96120;-87
2021/05/11 08:48:42;;;;;;;53.97;51.67;;;;;;;;;;4947273;28;92649;-88
2021/05/11 09:30:35;;;;;;;12.45;11.85;;;22.80;59.20;;;;;;4963575;28;94076;-88
2021/05/11 10:44:27;;;;;;;47.50;45.45;;;24.30;61.70;;;;;;4960283;28;91080;-89
2021/05/11 10:47:00;;;;;;;53.58;51.25;;;25.20;57.60;;;;;;4958657;28;92013;-89
2021/05/11 10:49:28;;;;;;;62.78;60.10;;;25.30;58.50;;;;;;4965047;28;92003;-87
2021/05/11 10:52:08;;;;;;;38.00;36.30;;;25.00;58.40;;;;;;4968105;28;92888;-85
2021/05/11 10:54:55;;;;;;;49.83;47.70;;;25.30;57.10;;;;;;4967145;28;91892;-88
2021/05/11 10:57:33;;;;;;;24.77;23.67;;;25.50;57.60;;;;;;4948252;28;92849;-88
2021/05/11 11:03:20;;;;;;;22.35;21.35;;;26.70;55.60;;;;;;4967372;28;91939;-87
2021/05/11 11:05:54;;;;;;;17.52;16.73;;;26.40;54.10;;;;;;4969687;28;92337;-87
2021/05/11 11:08:26;;;;;;;27.52;26.13;;;25.70;55.40;;;;;;4960370;28;92486;-86
2021/05/11 11:11:14;;;;;;;51.35;49.17;;;24.80;56.50;;;;;;4964985;28;92223;-85
2021/05/11 11:13:45;;;;;;;37.15;35.55;;;24.10;57.90;;;;;;4958140;28;91947;-88
2021/05/11 11:16:12;;;;;;;16.67;15.88;;;23.80;59.10;;;;;;4942522;28;91770;-86
2021/05/11 11:18:38;;;;;;;12.45;11.85;;;23.50;60.00;;;;;;4964660;28;93690;-86
2021/05/11 11:23:56;;;;;;;13.25;12.48;;;23.00;61.60;;;;;;4961620;28;92190;-89
2021/05/11 11:26:28;;;;;;;24.67;23.60;;;22.50;62.90;;;;;;4964238;28;91931;-85
2021/05/11 11:29:11;;;;;;;28.98;27.63;;;22.10;63.80;;;;;;4964757;28;92249;-86
2021/05/11 11:31:43;;;;;;;37.72;36.08;;;21.70;64.70;;;;;;4964426;28;91889;-87
2021/05/11 11:34:15;;;;;;;31.40;30.08;;;21.30;65.70;;;;;;4964686;28;92028;-87
2021/05/11 11:36:41;;;;;;;49.78;47.67;;;;;;;;;;4965946;28;90878;-88
2021/05/11 11:39:19;;;;;;;37.15;35.58;;;20.80;67.30;;;;;;4963326;28;92215;-88
2021/05/11 11:41:47;;;;;;;42.15;40.30;;;20.60;68.60;;;;;;4944593;28;94821;-87
2021/05/11 11:44:16;;;;;;;55.63;53.38;;;20.30;69.50;;;;;;4962272;28;93088;-87
2021/05/11 11:46:43;;;;;;;36.07;34.43;;;20.20;70.20;;;;;;4964317;28;92108;-89
2021/05/11 11:49:16;;;;;;;21.35;20.35;;;20.00;70.70;;;;;;4920131;28;803178;-87
2021/05/11 11:51:42;;;;;;;26.48;25.27;;;19.80;71.50;;;;;;4961332;28;92404;-86
2021/05/11 11:54:20;;;;;;;17.70;16.83;;;19.70;72.10;;;;;;4965133;28;91902;-87
2021/05/11 11:59:30;;;;;;;15.68;14.85;;;19.40;73.30;;;;;;4964124;28;91970;-85
2021/05/11 12:02:02;;;;;;;16.38;15.50;;;19.10;74.80;;;;;;4961955;28;91457;-85
2021/05/11 12:04:38;;;;;;;15.48;14.77;;;19.80;75.60;;;;;;4962182;28;91907;-87
2021/05/11 12:07:08;;;;;;;14.13;13.43;;;19.40;74.80;;;;;;4960183;28;91682;-86
2021/05/11 12:09:34;;;;;;;11.80;11.20;;;19.20;75.30;;;;;;4954602;28;93639;-86
2021/05/11 12:12:01;;;;;;;15.07;14.27;;;19.20;75.10;;;;;;4966370;28;93512;-88
2021/05/11 12:14:27;;;;;;;17.23;16.13;;;18.90;76.30;;;;;;4967853;28;92380;-86
2021/05/11 12:16:53;;;;;;;16.23;15.32;;;19.40;76.70;;;;;;4959781;28;92063;-84
2021/05/11 12:19:23;;;;;;;23.08;21.98;;;19.30;77.60;;;;;;4949423;28;92274;-85
2021/05/11 12:21:51;;;;;;;22.40;21.30;;;19.40;78.70;;;;;;4964985;28;92115;-88
2021/05/11 12:24:22;;;;;;;23.88;22.60;;;19.40;78.50;;;;;;4966149;28;91857;-87
2021/05/11 12:26:47;;;;;;;28.40;27.08;;;19.40;78.30;;;;;;4966319;28;91214;-88
2021/05/11 12:29:17;;;;;;;26.92;25.73;;;19.80;78.70;;;;;;4932161;28;92932;-87
2021/05/11 12:31:48;;;;;;;30.70;29.20;;;20.10;78.90;;;;;;4971356;28;91810;-86
2021/05/11 12:34:15;;;;;;;30.40;29.00;;;20.10;78.90;;;;;;4970282;28;92829;-83
2021/05/11 12:36:51;;;;;;;27.38;26.08;;;20.00;79.10;;;;;;4974749;28;92137;-85
2021/05/11 12:42:18;;;;;;;28.98;27.67;;;20.00;78.90;;;;;;4966454;28;92033;-87
2021/05/11 12:44:46;;;;;;;30.52;28.90;;;20.00;80.20;;;;;;4972091;28;91945;-87
2021/05/11 12:47:15;;;;;;;30.85;29.45;;;19.90;80.70;;;;;;4970368;28;91839;-85
2021/05/11 12:49:41;;;;;;;25.35;24.05;;;19.80;79.20;;;;;;4949060;28;95839;-84
2021/05/11 12:52:09;;;;;;;31.80;30.30;;;19.70;79.40;;;;;;4946599;28;92541;-87
2021/05/11 12:54:50;;;;;;;30.23;28.73;;;19.60;81.60;;;;;;4956006;28;91726;-86
2021/05/11 12:57:39;;;;;;;23.88;22.60;;;19.50;83.70;;;;;;4966919;28;91566;-86
2021/05/11 13:35:18;;;;;;;11.48;10.98;;;17.40;99.00;;;;;;4961300;28;92752;-86
2021/05/11 13:37:43;;;;;;;12.63;12.02;;;16.90;99.40;;;;;;4965460;28;92029;-86
2021/05/11 13:40:09;;;;;;;9.90;9.40;;;17.10;99.90;;;;;;4965781;28;91995;-87
2021/05/11 13:42:36;;;;;;;11.43;10.90;;;16.90;99.90;;;;;;4963120;28;94534;-86
2021/05/11 13:45:03;;;;;;;11.23;10.77;;;16.70;99.90;;;;;;4964183;28;91760;-87
2021/05/11 13:47:29;;;;;;;10.00;9.60;;;16.80;99.80;;;;;;4953184;28;91951;-86
2021/05/11 13:49:59;;;;;;;10.45;10.05;;;16.40;99.90;;;;;;4946886;28;92227;-87
2021/05/11 13:52:25;;;;;;;9.52;9.02;;;16.30;99.90;;;;;;4963047;28;93553;-87
2021/05/11 13:54:56;;;;;;;10.25;9.75;;;;;;;;;;4964372;28;92075;-86
2021/05/11 14:02:55;;;;;;;14.32;13.82;;;16.40;99.90;;;;;;4959923;28;92995;-87
2021/05/11 14:05:21;;;;;;;23.75;22.85;;;16.10;99.90;;;;;;4960761;28;91804;-87
2021/05/11 14:07:47;;;;;;;29.38;28.17;;;16.20;99.90;;;;;;4963790;28;92134;-87
2021/05/11 14:10:13;;;;;;;29.55;28.40;;;;;;;;;;4949891;28;91340;-87
2021/05/11 14:12:39;;;;;;;21.30;20.50;;;16.20;99.90;;;;;;4965537;28;92676;-87
2021/05/11 14:15:07;;;;;;;21.42;20.63;;;16.30;99.90;;;;;;4949359;28;94447;-86
2021/05/11 14:17:33;;;;;;;18.45;17.67;;;16.50;99.90;;;;;;4962875;28;92915;-86
2021/05/11 14:19:59;;;;;;;16.02;15.43;;;16.10;99.90;;;;;;4943271;28;92056;-88
2021/05/11 14:22:26;;;;;;;14.02;13.52;;;16.10;99.90;;;;;;4963011;28;92557;-87
2021/05/11 14:24:52;;;;;;;13.50;13.00;;;16.30;99.90;;;;;;4967388;28;91944;-88
2021/05/11 14:27:18;;;;;;;10.65;10.25;;;15.70;99.90;;;;;;4964288;28;91885;-85
2021/05/11 14:29:44;;;;;;;12.48;11.98;;;15.90;99.90;;;;;;4948940;28;91997;-86
2021/05/11 14:32:11;;;;;;;11.77;11.38;;;15.60;99.90;;;;;;4970489;28;92005;-86
2021/05/11 14:34:36;;;;;;;13.20;12.70;;;16.20;99.90;;;;;;4970827;28;92223;-86
2021/05/11 14:37:03;;;;;;;15.18;14.57;;;;;;;;;;4950807;28;91606;-87
2021/05/11 14:39:28;;;;;;;11.95;11.55;;;15.70;99.90;;;;;;4969738;28;92191;-87
2021/05/11 14:41:55;;;;;;;13.95;13.25;;;;;;;;;;4961934;28;93121;-87
2021/05/11 14:44:22;;;;;;;10.63;10.13;;;15.10;99.90;;;;;;4965217;28;93328;-86
2021/05/11 14:46:48;;;;;;;10.80;10.30;;;15.20;99.90;;;;;;4969180;28;91782;-87
2021/05/11 14:49:14;;;;;;;10.77;10.07;;;14.30;99.90;;;;;;4968366;28;91689;-86
2021/05/11 14:51:40;;;;;;;12.10;11.50;;;15.20;99.90;;;;;;4949917;28;94089;-86
2021/05/11 14:54:06;;;;;;;13.50;13.00;;;15.00;99.90;;;;;;4948362;28;92700;-87
2021/05/11 14:56:32;;;;;;;12.85;12.23;;;;;;;;;;4965664;28;91889;-85
2021/05/11 14:58:58;;;;;;;15.00;14.43;;;;;;;;;;4966622;28;91340;-87
2021/05/11 15:01:23;;;;;;;12.65;12.05;;;14.40;99.90;;;;;;4965047;28;92220;-87
2021/05/11 15:03:49;;;;;;;17.30;16.70;;;;;;;;;;4966905;28;92462;-89
2021/05/11 15:06:15;;;;;;;16.33;15.73;;;14.10;99.90;;;;;;4965504;28;92915;-86
2021/05/11 15:08:41;;;;;;;9.75;9.35;;;;;;;;;;4966920;28;91766;-85
2021/05/11 15:11:07;;;;;;;15.18;14.48;;;;;;;;;;4966032;28;91987;-86
2021/05/11 15:13:34;;;;;;;12.82;12.13;;;14.20;99.90;;;;;;4966234;28;91988;-87
2021/05/11 15:16:06;;;;;;;15.13;14.32;;;14.00;99.90;;;;;;4965738;28;91987;-86
2021/05/11 15:18:52;;;;;;;14.02;13.50;;;14.40;99.90;;;;;;4972638;28;92230;-84
2021/05/11 15:21:18;;;;;;;13.50;12.82;;;14.50;99.90;;;;;;4973581;28;92186;-87
2021/05/11 15:23:47;;;;;;;9.55;9.10;;;14.40;99.90;;;;;;4971000;28;91254;-86
2021/05/11 15:26:14;;;;;;;10.30;9.68;;;14.40;99.90;;;;;;4954933;28;91937;-88
2021/05/11 15:28:40;;;;;;;10.45;9.95;;;14.00;99.90;;;;;;4961434;28;91845;-87
2021/05/11 15:31:07;;;;;;;11.13;10.63;;;14.10;99.90;;;;;;4966304;28;93699;-87
2021/05/11 15:33:33;;;;;;;10.23;9.73;;;14.30;99.90;;;;;;4967997;28;95818;-87
2021/05/11 15:36:03;;;;;;;10.05;9.55;;;14.00;99.90;;;;;;4973776;28;92517;-85
2021/05/11 15:38:45;;;;;;;11.80;11.20;;;14.30;99.90;;;;;;4963393;28;91938;-85
2021/05/11 15:41:11;;;;;;;12.00;11.50;;;14.20;99.90;;;;;;4968720;28;92122;-85
2021/05/11 15:43:38;;;;;;;15.23;14.63;;;;;;;;;;4977922;28;92278;-85
2021/05/11 15:46:28;;;;;;;13.10;12.32;;;13.80;99.90;;;;;;5027397;22;92183;-87
2021/05/11 15:48:54;;;;;;;13.47;12.83;;;14.10;99.90;;;;;;4930160;28;91220;-86
2021/05/11 15:51:20;;;;;;;12.68;12.07;;;14.10;99.90;;;;;;4930614;28;93479;-85
2021/05/11 15:53:46;;;;;;;16.67;15.98;;;14.20;99.90;;;;;;4927131;28;92370;-87
2021/05/11 15:56:13;;;;;;;14.40;13.80;;;14.10;99.90;;;;;;4929067;28;92928;-87
2021/05/11 15:58:39;;;;;;;15.38;14.68;;;14.30;99.90;;;;;;4928162;28;91965;-86
2021/05/11 16:01:04;;;;;;;14.27;13.77;;;14.30;99.90;;;;;;4928582;28;92117;-85
2021/05/11 16:03:30;;;;;;;19.30;18.30;;;14.30;99.90;;;;;;4924051;28;91957;-87
2021/05/11 16:05:56;;;;;;;14.77;13.88;;;;;;;;;;4927181;28;92039;-86
2021/05/11 16:08:23;;;;;;;10.52;9.93;;;14.00;99.90;;;;;;4927023;28;92104;-86
2021/05/11 16:10:49;;;;;;;11.30;10.70;;;13.70;99.90;;;;;;4927803;28;93910;-88
2021/05/11 16:13:21;;;;;;;11.23;10.38;;;13.80;99.90;;;;;;4907793;28;94003;-88
2021/05/11 16:15:46;;;;;;;10.68;9.98;;;13.20;99.90;;;;;;4907901;28;92065;-87
2021/05/11 16:18:12;;;;;;;11.50;10.90;;;13.30;99.90;;;;;;4930892;28;91569;-87
2021/05/11 16:20:38;;;;;;;8.80;8.30;;;14.00;99.90;;;;;;4927694;28;93201;-87
2021/05/11 16:23:07;;;;;;;10.57;9.98;;;13.80;99.90;;;;;;4905433;28;95959;-86
2021/05/11 16:25:33;;;;;;;9.93;9.43;;;13.60;99.90;;;;;;4924972;28;91911;-86
2021/05/11 16:28:03;;;;;;;9.35;8.95;;;13.50;99.90;;;;;;4924748;28;92009;-86
2021/05/11 16:30:30;;;;;;;8.80;8.40;;;;;;;;;;4904790;28;95498;-88
2021/05/11 16:32:55;;;;;;;10.13;9.55;;;13.60;99.90;;;;;;4926796;28;92640;-86
2021/05/11 16:35:22;;;;;;;9.85;9.30;;;;;;;;;;4929321;28;92087;-86
2021/05/11 16:37:47;;;;;;;9.23;8.73;;;12.90;99.90;;;;;;4926833;28;91148;-85
2021/05/11 16:40:14;;;;;;;8.57;8.07;;;12.80;99.90;;;;;;4926107;28;93471;-89
2021/05/11 16:42:41;;;;;;;7.95;7.65;;;12.70;99.90;;;;;;4926562;28;92065;-85
2021/05/11 16:45:09;;;;;;;12.52;11.93;;;12.70;99.90;;;;;;4909792;28;93190;-85
2021/05/11 16:47:35;;;;;;;16.48;15.77;;;12.40;99.90;;;;;;4924031;28;91902;-84
2021/05/11 16:50:01;;;;;;;11.93;11.32;;;;;;;;;;4925603;28;92344;-84
2021/05/11 16:52:27;;;;;;;11.52;11.02;;;12.50;99.90;;;;;;4924890;28;92001;-85
2021/05/11 16:54:53;;;;;;;10.55;10.05;;;;;;;;;;4925747;28;91886;-85
2021/05/11 16:57:19;;;;;;;10.02;9.55;;;12.70;99.90;;;;;;4925032;28;92088;-84
2021/05/11 16:59:44;;;;;;;10.52;10.02;;;12.70;99.90;;;;;;4915131;28;92855;-85
2021/05/11 17:02:10;;;;;;;15.50;14.70;;;;;;;;;;4924013;28;92902;-87
2021/05/11 17:04:36;;;;;;;14.07;13.38;;;12.80;99.90;;;;;;4926342;28;92044;-86
2021/05/11 17:07:02;;;;;;;13.10;12.50;;;;;;;;;;4927785;28;91980;-87
2021/05/11 17:09:28;;;;;;;11.60;10.82;;;13.10;99.90;;;;;;4925561;28;93004;-86
2021/05/11 17:11:54;;;;;;;12.55;11.63;;;;;;;;;;4924398;28;92874;-85
2021/05/11 17:14:20;;;;;;;14.60;13.90;;;12.70;99.90;;;;;;4926006;28;91804;-87
2021/05/11 17:16:47;;;;;;;13.18;12.57;;;13.10;99.90;;;;;;4927674;28;91778;-87
2021/05/11 17:19:13;;;;;;;12.80;12.20;;;13.20;99.90;;;;;;4927623;28;92494;-87
2021/05/11 17:21:39;;;;;;;13.20;12.48;;;13.10;99.90;;;;;;4912739;28;95948;-86
2021/05/11 17:24:05;;;;;;;16.95;15.93;;;12.80;99.90;;;;;;4926966;28;91993;-84
2021/05/11 17:26:31;;;;;;;15.73;14.93;;;13.20;99.90;;;;;;4926417;28;91347;-86
2021/05/11 17:29:06;;;;;;;15.05;14.43;;;13.20;99.90;;;;;;4926279;28;92086;-84
2021/05/11 17:31:37;;;;;;;12.80;12.20;;;12.80;99.90;;;;;;4933293;28;92132;-85
2021/05/11 17:34:03;;;;;;;12.30;11.77;;;12.50;99.90;;;;;;4939923;28;93011;-86
2021/05/11 17:36:29;;;;;;;12.85;12.25;;;13.30;99.90;;;;;;4938931;28;92239;-84
2021/05/11 17:38:55;;;;;;;12.88;12.27;;;12.70;99.90;;;;;;4936859;28;92256;-86
2021/05/11 17:41:21;;;;;;;11.32;10.70;;;12.90;99.90;;;;;;4926250;28;92008;-86
2021/05/11 17:43:47;;;;;;;13.82;13.15;;;12.90;99.90;;;;;;4933035;28;91483;-84
2021/05/11 17:46:13;;;;;;;12.93;12.23;;;12.50;99.90;;;;;;4941614;28;92042;-84
2021/05/11 17:48:40;;;;;;;12.45;11.75;;;;;;;;;;4939748;28;92293;-85
2021/05/11 17:51:10;;;;;;;14.20;13.32;;;12.90;99.90;;;;;;4931242;28;92318;-87
2021/05/11 17:53:35;;;;;;;14.95;14.25;;;13.20;99.90;;;;;;4927997;28;92080;-88
2021/05/11 17:56:01;;;;;;;15.05;14.23;;;12.40;99.90;;;;;;4931247;28;91859;-86
2021/05/11 17:58:27;;;;;;;14.23;13.25;;;;;;;;;;4930749;28;93580;-86
2021/05/11 18:00:54;;;;;;;14.30;13.60;;;12.70;99.90;;;;;;4930012;28;93438;-85
2021/05/11 18:03:21;;;;;;;13.73;12.93;;;12.70;99.90;;;;;;4930596;28;91728;-86
2021/05/11 18:05:46;;;;;;;12.90;12.10;;;12.70;99.90;;;;;;4927620;28;91988;-87
2021/05/11 18:08:13;;;;;;;14.98;14.20;;;12.50;99.90;;;;;;4928089;28;92313;-86
2021/05/11 18:10:39;;;;;;;15.73;14.93;;;12.50;99.90;;;;;;4926192;28;93130;-86
2021/05/11 18:13:06;;;;;;;14.52;13.73;;;12.50;99.90;;;;;;4926697;28;92012;-88
2021/05/11 18:15:33;;;;;;;11.02;10.23;;;12.70;99.90;;;;;;4944118;28;91358;-85
2021/05/11 18:17:58;;;;;;;12.07;11.38;;;12.10;99.90;;;;;;4909080;28;94757;-88
2021/05/11 18:20:24;;;;;;;9.93;9.27;;;12.30;99.90;;;;;;4929211;28;92012;-87
2021/05/11 18:22:50;;;;;;;14.68;14.07;;;12.70;99.90;;;;;;4927396;28;92690;-87
2021/05/11 18:25:17;;;;;;;12.60;12.00;;;12.20;99.90;;;;;;4932698;28;92041;-87
2021/05/11 18:27:43;;;;;;;12.65;12.05;;;12.30;99.90;;;;;;4927466;28;92173;-88
2021/05/11 18:30:15;;;;;;;17.58;16.67;;;12.50;99.90;;;;;;4925571;28;92105;-88
2021/05/11 18:32:43;;;;;;;11.90;11.15;;;12.10;99.90;;;;;;4925889;28;92055;-90
2021/05/11 18:35:10;;;;;;;13.40;12.68;;;11.70;99.90;;;;;;4924841;28;91849;-88
2021/05/11 18:37:43;;;;;;;17.58;16.70;;;12.20;99.90;;;;;;4928130;28;92310;-86
2021/05/11 18:40:11;;;;;;;13.07;12.35;;;12.00;99.90;;;;;;4929730;28;94405;-86
2021/05/11 18:42:37;;;;;;;16.67;15.90;;;;;;;;;;4911604;28;92094;-87
2021/05/11 18:45:05;;;;;;;16.02;15.20;;;12.20;99.90;;;;;;4924554;28;91936;-86
2021/05/11 18:47:31;;;;;;;13.30;12.60;;;12.00;99.90;;;;;;4928292;28;92808;-85
2021/05/11 18:49:57;;;;;;;11.15;10.55;;;12.50;99.90;;;;;;4927134;28;93037;-85
2021/05/11 18:52:23;;;;;;;14.23;13.52;;;12.30;99.90;;;;;;4926775;28;91997;-87
2021/05/11 18:54:51;;;;;;;11.93;11.30;;;11.60;99.90;;;;;;4925542;28;91770;-86
2021/05/11 18:57:19;;;;;;;15.70;14.82;;;12.40;99.90;;;;;;4927919;28;91830;-85
2021/05/11 18:59:45;;;;;;;13.07;12.43;;;11.90;99.90;;;;;;4926484;28;91581;-84
2021/05/11 19:02:11;;;;;;;16.33;15.52;;;11.90;99.90;;;;;;4927706;28;91920;-87
2021/05/11 19:04:37;;;;;;;13.20;12.40;;;11.70;99.90;;;;;;4926296;28;91197;-85
2021/05/11 19:07:04;;;;;;;12.02;11.38;;;11.90;99.90;;;;;;4931815;28;92250;-86
2021/05/11 19:09:30;;;;;;;13.35;12.68;;;;;;;;;;4933423;28;92081;-85
2021/05/11 19:11:56;;;;;;;12.98;12.27;;;12.30;99.90;;;;;;4932907;28;92548;-82